Time;durP1;ratioP1;P1;durP2;ratioP2;P2;SDS_P1;SDS_P2;PMS_P1;PMS_P2;Temp;Humidity;BMP_temperature;BMP_pressure;BME280_temperature;BME280_humidity;BME280_pressure;Samples;Min_cycle;Max_cycle;Signal;HPM_P1;HPM_P2
2022/03/08 00:02:17;;;;;;;18.20;9.18;;;;;;;-1.22;75.51;93630.69;5006161;28;20026;-74
2022/03/08 00:04:42;;;;;;;19.95;9.32;;;;;;;-1.29;76.04;93637.94;5006094;28;20316;-74
2022/03/08 00:07:08;;;;;;;19.75;9.73;;;;;;;-1.24;76.09;93624.94;5006090;28;20057;-74
2022/03/08 00:09:33;;;;;;;14.10;8.38;;;;;;;-1.29;76.02;93629.31;5006241;28;20014;-74
2022/03/08 00:11:59;;;;;;;14.20;8.52;;;;;;;-1.26;76.32;93626.22;5006078;28;20045;-74
2022/03/08 00:14:24;;;;;;;16.92;8.57;;;;;;;-1.30;76.80;93632.97;5005978;28;20026;-74
2022/03/08 00:16:50;;;;;;;16.73;8.95;;;;;;;-1.27;76.90;93629.84;5005820;28;20093;-74
2022/03/08 00:19:16;;;;;;;17.67;8.48;;;;;;;-1.19;76.60;93639.88;5005810;28;20018;-75
2022/03/08 00:21:41;;;;;;;17.05;9.35;;;;;;;-1.22;76.75;93641.16;5005810;28;20349;-74
2022/03/08 00:24:08;;;;;;;16.42;8.75;;;;;;;-1.27;76.38;93635.88;5005971;28;20014;-74
2022/03/08 00:26:33;;;;;;;15.10;8.73;;;;;;;-1.31;76.63;93641.84;5005802;28;20380;-75
2022/03/08 00:28:59;;;;;;;18.27;9.82;;;;;;;-1.33;77.07;93642.06;5005703;28;20041;-75
2022/03/08 00:31:24;;;;;;;21.05;8.80;;;;;;;-1.29;77.00;93637.94;5005645;28;20022;-74
2022/03/08 00:33:50;;;;;;;17.80;9.68;;;;;;;-1.28;77.17;93628.28;5005449;28;20026;-74
2022/03/08 00:36:16;;;;;;;16.50;9.27;;;;;;;-1.24;76.67;93634.59;5005770;28;20268;-75
2022/03/08 00:38:42;;;;;;;16.98;8.68;;;;;;;-1.16;76.91;93628.94;5005394;28;20030;-75
2022/03/08 00:41:07;;;;;;;18.55;9.98;;;;;;;-1.14;76.75;93628.66;5005479;28;20052;-75
2022/03/08 00:43:33;;;;;;;15.07;8.23;;;;;;;-1.23;76.05;93636.16;5005466;28;20216;-75
2022/03/08 00:45:58;;;;;;;16.30;9.48;;;;;;;-1.20;76.21;93627.84;5005338;28;20018;-75
2022/03/08 00:48:24;;;;;;;20.08;10.60;;;;;;;-1.17;76.02;93627.34;5005297;28;20026;-75
2022/03/08 00:50:49;;;;;;;19.17;10.18;;;;;;;-1.16;75.33;93631.56;5005179;28;20028;-75
2022/03/08 00:53:15;;;;;;;19.42;10.25;;;;;;;-1.23;75.27;93625.72;5005371;28;20291;-75
2022/03/08 00:55:40;;;;;;;16.40;9.23;;;;;;;-1.25;75.55;93623.34;5005340;28;20384;-75
2022/03/08 00:58:07;;;;;;;18.00;10.57;;;;;;;-1.25;75.38;93620.72;5004004;28;20022;-75
2022/03/08 01:00:35;;;;;;;15.25;8.98;;;;;;;-1.18;75.58;93620.56;5005033;28;20018;-75
2022/03/08 01:03:01;;;;;;;18.10;9.40;;;;;;;-1.29;74.80;93626.69;5005248;28;20025;-75
2022/03/08 01:05:28;;;;;;;16.13;8.95;;;;;;;-1.34;74.90;93626.63;5005071;28;20089;-74
2022/03/08 01:07:54;;;;;;;18.92;11.18;;;;;;;-1.32;75.34;93624.56;5005150;28;20232;-75
2022/03/08 01:10:23;;;;;;;20.17;9.90;;;;;;;-1.28;75.12;93621.22;5004911;28;20023;-75
2022/03/08 01:12:49;;;;;;;21.45;10.73;;;;;;;-1.23;74.90;93617.88;5005010;28;20026;-75
2022/03/08 01:15:16;;;;;;;19.73;9.88;;;;;;;-1.26;74.91;93624.38;5004921;28;20033;-75
2022/03/08 01:17:43;;;;;;;22.42;11.75;;;;;;;-1.22;74.83;93612.41;5004972;28;20022;-76
2022/03/08 01:20:10;;;;;;;18.58;10.20;;;;;;;-1.19;74.49;93618.94;5004749;28;20211;-76
2022/03/08 01:22:36;;;;;;;17.83;9.02;;;;;;;-1.18;74.11;93617.13;5004676;28;20089;-76
2022/03/08 01:25:03;;;;;;;20.73;11.50;;;;;;;-1.21;74.04;93613.19;5004557;28;20030;-75
2022/03/08 01:27:29;;;;;;;21.77;10.57;;;;;;;-1.26;74.20;93615.75;5004675;28;20026;-75
2022/03/08 01:29:54;;;;;;;23.00;10.15;;;;;;;-1.12;74.41;93605.69;5004071;28;20033;-75
2022/03/08 01:32:20;;;;;;;20.42;11.35;;;;;;;-1.07;73.78;93614.38;5004590;28;20343;-75
2022/03/08 01:34:46;;;;;;;22.58;11.10;;;;;;;-1.06;73.92;93609.91;5004613;28;20108;-76
2022/03/08 01:37:12;;;;;;;18.35;9.90;;;;;;;-1.01;73.62;93616.00;5004407;28;20058;-76
2022/03/08 01:39:37;;;;;;;17.95;10.80;;;;;;;-0.97;73.31;93610.28;5004403;28;20069;-75
2022/03/08 01:42:10;;;;;;;21.20;11.52;;;;;;;-0.94;73.23;93617.63;5004296;28;20046;-75
2022/03/08 01:44:36;;;;;;;20.88;9.88;;;;;;;-0.98;73.15;93606.09;5004288;28;20080;-75
2022/03/08 01:47:02;;;;;;;18.65;11.23;;;;;;;-1.08;73.01;93614.63;5004236;28;20022;-75
2022/03/08 01:49:27;;;;;;;21.08;11.70;;;;;;;-1.21;73.08;93613.19;5003977;28;20019;-75
2022/03/08 01:51:52;;;;;;;20.95;11.55;;;;;;;-1.24;73.66;93605.84;5004198;28;20153;-75
2022/03/08 01:54:18;;;;;;;20.83;10.80;;;;;;;-1.26;73.70;93615.75;5004297;28;20032;-75
2022/03/08 01:56:44;;;;;;;20.58;11.40;;;;;;;-1.43;73.52;93603.53;5003945;28;20022;-75
2022/03/08 01:59:09;;;;;;;19.85;11.25;;;;;;;-1.44;74.15;93609.78;5004030;28;20026;-74
2022/03/08 02:01:35;;;;;;;24.08;11.75;;;;;;;-1.45;74.13;93615.25;5003965;28;20045;-75
2022/03/08 02:04:00;;;;;;;22.88;11.02;;;;;;;-1.46;74.19;93614.47;5003914;28;20343;-75
2022/03/08 02:06:26;;;;;;;20.50;11.60;;;;;;;-1.48;74.00;93613.16;5003866;28;20089;-75
2022/03/08 02:08:51;;;;;;;24.77;12.27;;;;;;;-1.51;74.11;93609.19;5003924;28;20086;-75
2022/03/08 02:11:17;;;;;;;20.65;10.88;;;;;;;-1.55;74.32;93615.94;5003935;28;20022;-75
2022/03/08 02:13:43;;;;;;;23.05;11.68;;;;;;;-1.52;73.93;93612.84;5003742;28;20022;-74
2022/03/08 02:16:10;;;;;;;22.80;12.20;;;;;;;-1.48;73.97;93610.53;5003701;28;20198;-74
2022/03/08 02:18:35;;;;;;;22.52;11.50;;;;;;;-1.45;74.05;93617.88;5003666;28;20224;-74
2022/03/08 02:21:05;;;;;;;22.75;12.27;;;;;;;-1.53;74.08;93620.91;5003439;28;20093;-75
2022/03/08 02:23:30;;;;;;;24.35;11.82;;;;;;;-1.56;74.69;93614.38;5003667;28;20228;-74
2022/03/08 02:25:57;;;;;;;23.15;11.80;;;;;;;-1.56;74.45;93624.81;5003489;28;20022;-74
2022/03/08 02:28:22;;;;;;;24.92;12.32;;;;;;;-1.56;74.70;93614.38;5003675;28;20026;-74
2022/03/08 02:30:48;;;;;;;18.85;10.23;;;;;;;-1.57;74.38;93619.81;5003665;28;20088;-74
2022/03/08 02:33:13;;;;;;;22.63;11.85;;;;;;;-1.50;74.75;93621.22;5003440;28;20065;-74
2022/03/08 02:35:39;;;;;;;22.65;12.10;;;;;;;-1.56;74.22;93626.66;5003615;28;20034;-74
2022/03/08 02:38:06;;;;;;;23.48;11.10;;;;;;;-1.58;74.29;93620.88;5003227;28;20030;-74
2022/03/08 02:40:38;;;;;;;23.20;12.43;;;;;;;-1.61;74.75;93622.13;5002672;28;20044;-74
2022/03/08 02:43:06;;;;;;;22.60;11.32;;;;;;;-1.58;74.94;93624.28;5003362;28;20029;-75
2022/03/08 02:45:32;;;;;;;24.73;12.05;;;;;;;-1.55;75.25;93625.59;5003322;28;20224;-75
2022/03/08 02:47:57;;;;;;;21.15;11.00;;;;;;;-1.58;74.89;93624.28;5003210;28;20030;-75
2022/03/08 02:50:23;;;;;;;20.67;11.23;;;;;;;-1.57;74.52;93630.28;5003170;28;20026;-75
2022/03/08 02:52:51;;;;;;;19.98;11.10;;;;;;;-1.53;74.46;93624.31;5003210;28;20038;-74
2022/03/08 02:55:21;;;;;;;25.08;11.38;;;;;;;-1.57;74.39;93636.28;5003252;28;20034;-74
2022/03/08 02:57:47;;;;;;;22.02;9.93;;;;;;;-1.54;73.99;93635.81;5003255;28;20081;-75
2022/03/08 03:00:14;;;;;;;24.92;10.85;;;;;;;-1.53;74.31;93634.78;5003187;28;20030;-75
2022/03/08 03:02:40;;;;;;;23.60;12.52;;;;;;;-1.51;74.54;93643.16;5003147;28;20128;-74
2022/03/08 03:05:06;;;;;;;21.27;11.48;;;;;;;-1.46;74.39;93632.78;5003144;28;20108;-74
2022/03/08 03:07:32;;;;;;;22.48;11.90;;;;;;;-1.40;74.15;93641.47;5003090;28;20026;-75
2022/03/08 03:09:58;;;;;;;22.42;11.32;;;;;;;-1.42;74.19;93638.31;5003150;28;20022;-75
2022/03/08 03:12:23;;;;;;;24.33;13.02;;;;;;;-1.43;74.03;93637.50;5003387;28;20064;-75
2022/03/08 03:14:49;;;;;;;19.73;10.65;;;;;;;-1.40;74.04;93638.88;5003335;28;20049;-75
2022/03/08 03:17:16;;;;;;;24.65;12.68;;;;;;;-1.39;74.34;93657.94;5003099;28;20041;-75
2022/03/08 03:19:41;;;;;;;22.20;11.70;;;;;;;-1.50;74.64;93650.00;5002795;28;20038;-75
2022/03/08 03:22:07;;;;;;;20.63;11.90;;;;;;;-1.50;74.73;93654.44;5003200;28;20044;-75
2022/03/08 03:24:32;;;;;;;23.90;11.65;;;;;;;-1.50;75.22;93655.22;5002911;28;20026;-75
2022/03/08 03:26:58;;;;;;;22.70;12.07;;;;;;;-1.57;75.51;93646.75;5003015;28;20026;-75
2022/03/08 03:29:23;;;;;;;25.05;12.35;;;;;;;-1.53;75.59;93655.69;5003031;28;20022;-75
2022/03/08 03:31:49;;;;;;;25.65;12.73;;;;;;;-1.52;75.63;93649.44;5002968;28;20031;-75
2022/03/08 03:34:14;;;;;;;24.15;12.70;;;;;;;-1.52;75.59;93659.88;5002836;28;20070;-75
2022/03/08 03:36:40;;;;;;;24.60;12.68;;;;;;;-1.47;75.69;93644.25;5002872;28;20030;-75
2022/03/08 03:39:06;;;;;;;27.40;13.95;;;;;;;-1.46;75.20;93651.06;5002723;28;20068;-75
2022/03/08 03:41:31;;;;;;;27.30;13.30;;;;;;;-1.42;75.29;93654.00;5002825;28;20054;-76
2022/03/08 03:43:57;;;;;;;28.20;13.60;;;;;;;-1.45;75.33;93650.03;5002850;28;20094;-75
2022/03/08 03:46:22;;;;;;;27.63;13.50;;;;;;;-1.43;75.50;93647.19;5002975;28;20034;-75
2022/03/08 03:48:48;;;;;;;27.33;12.18;;;;;;;-1.48;75.35;93655.75;5002779;28;20089;-75
2022/03/08 03:51:14;;;;;;;23.85;13.18;;;;;;;-1.51;75.60;93655.44;5002705;28;20034;-75
2022/03/08 03:53:40;;;;;;;23.58;11.70;;;;;;;-1.59;75.85;93659.25;5005519;28;20092;-75
2022/03/08 03:56:06;;;;;;;28.52;14.50;;;;;;;-1.50;76.00;93650.00;5006324;28;20022;-75
2022/03/08 03:58:32;;;;;;;25.25;13.25;;;;;;;-1.45;76.13;93652.66;5006241;28;20076;-75
2022/03/08 04:00:57;;;;;;;24.25;13.27;;;;;;;-1.47;75.80;93652.09;5006304;28;20026;-75
2022/03/08 04:03:23;;;;;;;26.35;13.65;;;;;;;-1.49;75.38;93648.94;5006509;28;20026;-75
2022/03/08 04:05:48;;;;;;;28.73;14.70;;;;;;;-1.44;75.72;93650.84;5006046;28;20085;-75
2022/03/08 04:08:15;;;;;;;26.42;14.07;;;;;;;-1.39;75.41;93652.72;5006135;28;20034;-75
2022/03/08 04:10:41;;;;;;;23.85;13.13;;;;;;;-1.43;75.13;93655.03;5006115;28;20081;-74
2022/03/08 04:13:07;;;;;;;29.90;14.18;;;;;;;-1.45;75.56;93655.25;5006043;28;20030;-74
2022/03/08 04:15:32;;;;;;;28.85;13.77;;;;;;;-1.41;75.62;93652.97;5006144;28;20193;-75
2022/03/08 04:17:58;;;;;;;27.10;13.68;;;;;;;-1.42;75.82;93654.00;5005677;28;20375;-74
2022/03/08 04:20:23;;;;;;;27.17;13.32;;;;;;;-1.52;76.16;93656.50;5005984;28;20038;-74
2022/03/08 04:22:49;;;;;;;24.73;12.27;;;;;;;-1.52;76.20;93654.66;5005807;28;20053;-74
2022/03/08 04:25:14;;;;;;;27.67;12.57;;;;;;;-1.53;76.13;93658.28;5005966;28;20141;-74
2022/03/08 04:27:40;;;;;;;27.08;13.30;;;;;;;-1.51;76.04;93656.22;5005968;28;20351;-74
2022/03/08 04:30:08;;;;;;;24.92;12.90;;;;;;;-1.57;75.87;93653.81;5005718;28;20030;-74
2022/03/08 04:32:33;;;;;;;26.05;13.88;;;;;;;-1.57;76.28;93651.97;5005773;28;20220;-74
2022/03/08 04:34:59;;;;;;;25.10;12.95;;;;;;;-1.54;76.23;93648.09;5005632;28;20030;-75
2022/03/08 04:37:24;;;;;;;26.73;13.98;;;;;;;-1.51;76.08;93653.63;5005625;28;20022;-74
2022/03/08 04:39:50;;;;;;;23.67;12.65;;;;;;;-1.54;76.38;93651.50;5005537;28;20264;-76
2022/03/08 04:42:15;;;;;;;26.65;13.20;;;;;;;-1.55;76.42;93647.28;5005611;28;20058;-76
2022/03/08 04:44:41;;;;;;;26.90;13.90;;;;;;;-1.55;76.24;93649.91;5005464;28;20022;-76
2022/03/08 04:47:06;;;;;;;28.08;13.45;;;;;;;-1.60;76.27;93657.69;5005564;28;20030;-76
2022/03/08 04:49:32;;;;;;;23.48;12.65;;;;;;;-1.58;76.32;93642.56;5005466;28;20324;-76
2022/03/08 04:51:57;;;;;;;25.92;13.20;;;;;;;-1.58;76.22;93649.63;5005260;28;20125;-76
2022/03/08 04:54:23;;;;;;;26.98;13.27;;;;;;;-1.58;76.15;93644.41;5005409;28;20022;-76
2022/03/08 04:56:48;;;;;;;24.92;12.70;;;;;;;-1.64;76.14;93654.00;5005367;28;20028;-76
2022/03/08 04:59:13;;;;;;;25.05;12.77;;;;;;;-1.57;76.14;93649.38;5005162;28;20033;-76
2022/03/08 05:01:39;;;;;;;25.38;13.32;;;;;;;-1.58;75.93;93645.19;5005222;28;20022;-74
2022/03/08 05:04:04;;;;;;;28.05;13.85;;;;;;;-1.57;76.22;93651.97;5004071;28;20030;-74
2022/03/08 05:06:30;;;;;;;30.48;14.88;;;;;;;-1.55;75.80;93662.97;5005056;28;20030;-74
2022/03/08 05:08:56;;;;;;;27.73;13.32;;;;;;;-1.66;75.96;93656.06;5005106;28;20026;-75
2022/03/08 05:11:22;;;;;;;26.02;12.43;;;;;;;-1.83;77.14;93654.28;5004647;28;20022;-75
2022/03/08 05:13:47;;;;;;;29.02;13.13;;;;;;;-1.85;77.18;93653.72;5004779;28;20041;-74
2022/03/08 05:16:13;;;;;;;28.90;13.35;;;;;;;-1.82;77.08;93663.69;5004737;28;20046;-74
2022/03/08 05:18:38;;;;;;;27.17;12.40;;;;;;;-1.91;77.15;93661.75;5004574;28;20023;-74
2022/03/08 05:21:04;;;;;;;23.30;12.52;;;;;;;-1.91;77.21;93659.91;5004509;28;20355;-74
2022/03/08 05:23:29;;;;;;;26.90;12.55;;;;;;;-1.86;77.32;93665.19;5004427;28;20018;-74
2022/03/08 05:25:55;;;;;;;28.27;14.27;;;;;;;-1.89;77.78;93665.69;5004535;28;20105;-74
2022/03/08 05:28:20;;;;;;;27.90;14.68;;;;;;;-1.93;77.45;93658.56;5004621;28;20021;-74
2022/03/08 05:30:46;;;;;;;28.30;14.80;;;;;;;-1.88;78.09;93656.03;5004618;28;20256;-73
2022/03/08 05:33:11;;;;;;;28.00;13.02;;;;;;;-1.87;78.14;93657.63;5004337;28;20276;-73
2022/03/08 05:35:37;;;;;;;28.63;14.18;;;;;;;-1.87;77.83;93658.41;5004067;28;20022;-74
2022/03/08 05:38:03;;;;;;;30.73;14.88;;;;;;;-1.77;77.87;93654.31;5004539;28;20030;-74
2022/03/08 05:40:29;;;;;;;28.40;13.55;;;;;;;-1.76;76.94;93653.31;5004135;28;20026;-74
2022/03/08 05:42:54;;;;;;;29.40;13.80;;;;;;;-1.72;77.28;93663.03;5004097;28;20105;-74
2022/03/08 05:45:19;;;;;;;26.38;14.27;;;;;;;-1.74;77.06;93662.47;5003801;28;20065;-74
2022/03/08 05:47:45;;;;;;;25.10;12.63;;;;;;;-1.73;76.91;93663.25;5003956;28;20023;-73
2022/03/08 05:50:11;;;;;;;25.58;13.73;;;;;;;-1.74;76.84;93666.94;5004038;28;20134;-74
2022/03/08 05:52:37;;;;;;;26.40;13.23;;;;;;;-1.72;76.81;93670.09;5003863;28;20034;-74
2022/03/08 05:55:06;;;;;;;28.08;13.52;;;;;;;-1.69;76.94;93664.38;5003980;28;20030;-74
2022/03/08 05:57:32;;;;;;;29.90;14.15;;;;;;;-1.66;77.27;93675.13;5003937;28;20073;-74
2022/03/08 05:59:57;;;;;;;28.70;14.88;;;;;;;-1.76;77.34;93671.59;5004062;28;20089;-74
2022/03/08 06:02:23;;;;;;;26.15;13.77;;;;;;;-1.69;77.14;93659.13;5003939;28;20177;-74
2022/03/08 06:04:48;;;;;;;29.60;13.77;;;;;;;-1.68;77.13;93679.03;5002718;28;20076;-74
2022/03/08 06:07:14;;;;;;;27.02;14.15;;;;;;;-1.73;77.16;93673.72;5003676;28;20190;-74
2022/03/08 06:09:39;;;;;;;31.48;15.30;;;;;;;-1.71;77.57;93671.66;5003700;28;20053;-74
2022/03/08 06:12:06;;;;;;;31.88;17.08;;;;;;;-1.58;77.19;93673.94;5003545;28;20023;-74
2022/03/08 06:14:31;;;;;;;28.63;15.55;;;;;;;-1.54;77.22;93682.09;5003808;28;20037;-75
2022/03/08 06:16:57;;;;;;;29.02;14.75;;;;;;;-1.52;76.08;93680.81;5003709;28;20026;-75
2022/03/08 06:19:24;;;;;;;31.17;14.85;;;;;;;-1.52;76.50;93680.81;5003339;28;20085;-75
2022/03/08 06:21:50;;;;;;;34.08;16.38;;;;;;;-1.44;78.30;93683.00;5003587;28;20026;-76
2022/03/08 06:24:16;;;;;;;30.83;15.88;;;;;;;-1.43;76.57;93689.00;5003679;28;20022;-71
2022/03/08 06:26:41;;;;;;;30.13;15.52;;;;;;;-1.30;75.90;93685.28;5003585;28;20052;-71
2022/03/08 06:29:08;;;;;;;31.45;16.33;;;;;;;-1.31;75.78;93688.91;5003322;28;20021;-71
2022/03/08 06:31:34;;;;;;;31.83;15.10;;;;;;;-1.27;75.33;93690.00;5003363;28;20048;-70
2022/03/08 06:33:59;;;;;;;31.45;15.10;;;;;;;-1.39;75.74;93681.47;5003561;28;20022;-70
2022/03/08 06:36:25;;;;;;;27.23;14.75;;;;;;;-1.42;75.59;93686.16;5003549;28;20077;-70
2022/03/08 06:38:50;;;;;;;29.27;14.80;;;;;;;-1.41;75.82;93687.72;5003442;28;20069;-71
2022/03/08 06:41:15;;;;;;;31.88;15.13;;;;;;;-1.35;75.68;93690.41;5003102;28;20046;-70
2022/03/08 06:43:41;;;;;;;30.30;15.32;;;;;;;-1.26;76.06;93694.22;5003351;28;20033;-70
2022/03/08 06:46:07;;;;;;;36.90;18.25;;;;;;;-1.18;75.68;93685.13;5003159;28;20030;-70
2022/03/08 06:48:32;;;;;;;28.98;15.02;;;;;;;-1.09;75.30;93686.28;5004685;28;20033;-73
2022/03/08 06:50:57;;;;;;;32.10;15.88;;;;;;;-1.03;74.59;93688.72;5003497;28;20053;-73
2022/03/08 06:53:23;;;;;;;40.03;18.08;;;;;;;-1.03;74.82;93688.72;5003319;28;20022;-73
2022/03/08 06:55:49;;;;;;;29.15;15.88;;;;;;;-0.96;74.95;93695.56;5018172;28;20029;-73
2022/03/08 06:58:14;;;;;;;32.75;15.77;;;;;;;-1.01;74.63;93694.47;5003261;28;20030;-73
2022/03/08 07:00:40;;;;;;;36.15;17.33;;;;;;;-0.97;74.60;93680.94;5003148;28;20027;-73
2022/03/08 07:03:05;;;;;;;27.63;15.43;;;;;;;-0.85;74.61;93694.66;5003149;28;20054;-73
2022/03/08 07:05:32;;;;;;;29.05;15.55;;;;;;;-0.79;74.32;93692.88;5003195;28;20316;-73
2022/03/08 07:07:57;;;;;;;28.63;15.07;;;;;;;-0.89;73.24;93694.34;5003213;28;20085;-73
2022/03/08 07:10:23;;;;;;;27.80;14.63;;;;;;;-0.95;74.26;93694.56;5003095;28;20022;-73
2022/03/08 07:12:48;;;;;;;26.83;14.82;;;;;;;-1.03;74.16;93690.53;5002791;28;20194;-72
2022/03/08 07:15:14;;;;;;;33.25;16.42;;;;;;;-1.06;74.23;93699.69;5003031;28;20210;-76
2022/03/08 07:17:44;;;;;;;28.88;15.65;;;;;;;-1.06;74.33;93689.22;5003006;28;20041;-76
2022/03/08 07:20:10;;;;;;;26.52;13.77;;;;;;;-1.07;74.55;93698.06;5002994;28;20026;-76
2022/03/08 07:22:36;;;;;;;28.75;14.63;;;;;;;-1.22;74.92;93692.69;5002944;28;20065;-76
2022/03/08 07:25:02;;;;;;;26.45;13.23;;;;;;;-1.21;74.62;93694.25;5002639;28;20248;-76
2022/03/08 07:27:27;;;;;;;24.83;14.05;;;;;;;-1.28;75.08;93691.03;5004137;28;20026;-75
2022/03/08 07:29:53;;;;;;;26.08;12.70;;;;;;;-1.29;75.23;93694.69;5006629;28;20176;-76
2022/03/08 07:32:19;;;;;;;24.45;13.95;;;;;;;-1.23;75.67;93707.56;5006581;28;20022;-75
2022/03/08 07:34:45;;;;;;;24.42;13.35;;;;;;;-1.12;74.81;93699.84;5006758;28;20026;-75
2022/03/08 07:37:10;;;;;;;21.27;11.65;;;;;;;-1.26;74.15;93692.38;5006562;28;20029;-76
2022/03/08 07:39:36;;;;;;;22.67;12.48;;;;;;;-1.25;74.67;93693.94;5006708;28;20041;-76
2022/03/08 07:42:02;;;;;;;25.25;12.20;;;;;;;-1.18;73.63;93695.59;5006571;28;20037;-75
2022/03/08 07:44:27;;;;;;;23.95;13.02;;;;;;;-1.19;73.76;93692.19;5006870;28;20025;-74
2022/03/08 07:46:53;;;;;;;26.98;13.43;;;;;;;-1.14;73.27;93694.88;5006413;28;20029;-75
2022/03/08 07:49:18;;;;;;;21.05;11.50;;;;;;;-1.11;72.21;93685.75;5006539;28;20065;-74
2022/03/08 07:51:44;;;;;;;25.20;13.18;;;;;;;-1.11;72.50;93677.91;5006542;28;20022;-73
2022/03/08 07:54:09;;;;;;;30.83;12.48;;;;;;;-1.19;72.53;93689.56;5006438;28;20018;-74
2022/03/08 07:56:35;;;;;;;25.50;11.43;;;;;;;-1.16;72.04;93694.31;5006171;28;20023;-75
2022/03/08 07:59:00;;;;;;;29.08;13.82;;;;;;;-1.16;73.01;93690.91;5006090;28;20018;-74
2022/03/08 08:01:26;;;;;;;40.47;15.95;;;;;;;-1.11;72.50;93689.13;5006258;28;20041;-75
2022/03/08 08:03:51;;;;;;;29.70;14.63;;;;;;;-1.11;71.90;93689.13;5005984;28;20384;-76
2022/03/08 08:06:16;;;;;;;25.20;12.73;;;;;;;-1.19;72.13;93688.78;5006070;28;20034;-74
2022/03/08 08:08:42;;;;;;;27.05;13.07;;;;;;;-1.32;71.83;93693.34;5006048;28;20317;-74
2022/03/08 08:11:07;;;;;;;31.15;13.85;;;;;;;-1.38;72.47;93693.50;5005980;28;20018;-74
2022/03/08 08:13:33;;;;;;;22.98;12.95;;;;;;;-1.38;72.99;93699.53;5005953;28;20085;-75
2022/03/08 08:15:58;;;;;;;23.90;13.77;;;;;;;-1.37;72.97;93702.94;5005931;28;20018;-75
2022/03/08 08:18:24;;;;;;;22.25;11.82;;;;;;;-1.42;71.89;93703.69;5005809;28;20101;-75
2022/03/08 08:20:49;;;;;;;22.95;11.25;;;;;;;-1.60;71.77;93709.97;5005628;28;20086;-77
2022/03/08 08:23:15;;;;;;;29.75;13.82;;;;;;;-1.58;72.90;93701.91;5005757;28;20026;-77
2022/03/08 08:25:40;;;;;;;22.65;12.48;;;;;;;-1.55;72.00;93704.78;5005732;28;20037;-76
2022/03/08 08:28:09;;;;;;;26.83;14.18;;;;;;;-1.44;72.02;93703.13;5005880;28;20022;-75
2022/03/08 08:30:34;;;;;;;25.25;12.85;;;;;;;-1.49;71.63;93706.44;5005690;28;20022;-76
2022/03/08 08:33:00;;;;;;;24.10;13.05;;;;;;;-1.51;72.02;93700.66;5005791;28;20068;-79
2022/03/08 08:35:26;;;;;;;23.65;13.07;;;;;;;-1.48;72.33;93700.19;5005501;28;20028;-77
2022/03/08 08:37:51;;;;;;;27.50;13.23;;;;;;;-1.38;71.73;93706.56;5005765;28;20383;-76
2022/03/08 08:40:17;;;;;;;24.92;12.93;;;;;;;-1.44;71.18;93709.16;5004183;28;20101;-78
2022/03/08 08:42:42;;;;;;;24.55;13.02;;;;;;;-1.55;72.04;93712.63;5005556;28;20031;-77
2022/03/08 08:45:09;;;;;;;27.00;13.13;;;;;;;-1.64;71.83;93711.50;5005326;28;20030;-78
2022/03/08 08:47:34;;;;;;;28.55;12.48;;;;;;;-1.63;71.56;93715.66;5005105;28;20205;-78
2022/03/08 08:50:00;;;;;;;26.08;12.57;;;;;;;-1.63;70.97;93711.25;5005598;28;20025;-80
2022/03/08 08:52:25;;;;;;;29.15;14.00;;;;;;;-1.64;72.15;93714.88;5005369;28;20026;-77
2022/03/08 08:54:51;;;;;;;31.25;14.85;;;;;;;-1.58;72.20;93718.38;5005326;28;20034;-77
2022/03/08 08:57:16;;;;;;;30.63;15.73;;;;;;;-1.44;71.06;93719.59;5020287;28;20025;-75
2022/03/08 08:59:42;;;;;;;39.60;16.23;;;;;;;-1.44;70.59;93716.97;5004884;28;20033;-76
2022/03/08 09:02:07;;;;;;;27.98;13.48;;;;;;;-1.68;70.19;93715.63;5004966;28;20022;-78
2022/03/08 09:04:36;;;;;;;31.75;14.40;;;;;;;-1.73;70.95;93720.75;5004113;28;20027;-78
2022/03/08 09:07:02;;;;;;;32.22;16.10;;;;;;;-1.68;70.94;93716.41;5004959;28;20316;-78
2022/03/08 09:09:28;;;;;;;33.40;16.02;;;;;;;-1.69;70.00;93716.63;5005080;28;20056;-76
2022/03/08 09:11:53;;;;;;;24.95;13.77;;;;;;;-1.66;70.51;93710.94;5004713;28;20312;-78
2022/03/08 09:14:19;;;;;;;31.27;15.38;;;;;;;-1.60;71.00;93714.41;5004902;28;20030;-76
2022/03/08 09:16:44;;;;;;;26.60;12.50;;;;;;;-1.56;70.36;93715.53;5004859;28;20280;-75
2022/03/08 09:19:10;;;;;;;28.05;14.27;;;;;;;-1.64;69.13;93706.25;5004740;28;20038;-75
2022/03/08 09:21:37;;;;;;;28.63;15.13;;;;;;;-1.54;69.15;93719.47;5003545;28;20125;-76
2022/03/08 09:24:04;;;;;;;34.15;17.23;;;;;;;-1.56;69.10;93718.13;5019966;28;20022;-75
2022/03/08 09:26:29;;;;;;;31.15;15.48;;;;;;;-1.42;68.34;93721.97;5004778;28;20026;-75
2022/03/08 09:28:55;;;;;;;35.13;16.55;;;;;;;-1.37;67.64;93719.41;5004614;28;20101;-79
2022/03/08 09:31:20;;;;;;;29.25;13.90;;;;;;;-1.49;68.49;93710.88;5004643;28;20022;-77
2022/03/08 09:33:46;;;;;;;42.40;17.75;;;;;;;-1.45;69.75;93718.00;5004270;28;20032;-78
2022/03/08 09:36:12;;;;;;;40.40;18.05;;;;;;;-1.37;70.41;93710.78;5004616;28;20029;-79
2022/03/08 09:38:38;;;;;;;27.65;14.35;;;;;;;-1.28;67.31;93711.97;5004454;28;20036;-77
2022/03/08 09:41:04;;;;;;;29.27;14.82;;;;;;;-1.32;66.84;93721.28;5004345;28;20050;-81
2022/03/08 09:43:32;;;;;;;32.72;17.08;;;;;;;-1.37;67.74;93713.41;5004278;28;20142;-78
2022/03/08 09:45:58;;;;;;;31.90;15.80;;;;;;;-1.41;67.27;93707.84;5004269;28;20026;-82
2022/03/08 09:48:23;;;;;;;34.50;16.20;;;;;;;-1.38;66.84;93715.25;5004075;28;20022;-79
2022/03/08 09:50:49;;;;;;;32.05;16.70;;;;;;;-1.35;67.24;93716.56;5003869;28;20324;-82
2022/03/08 09:53:14;;;;;;;40.42;17.63;;;;;;;-1.39;67.05;93715.47;5003948;28;20042;-80
2022/03/08 09:55:40;;;;;;;35.40;15.52;;;;;;;-1.41;65.83;93719.09;5004031;28;20018;-80
2022/03/08 09:58:05;;;;;;;38.15;16.15;;;;;;;-1.59;66.44;93719.38;5003660;28;20074;-82
2022/03/08 10:00:32;;;;;;;34.38;16.30;;;;;;;-1.52;66.59;93714.78;5004128;28;20061;-80
2022/03/08 10:02:59;;;;;;;37.08;17.33;;;;;;;-1.39;66.93;93720.69;5004103;28;20022;-81
2022/03/08 10:05:25;;;;;;;31.50;16.02;;;;;;;-1.35;67.23;93711.34;5003908;28;20026;-81
2022/03/08 10:08:13;;;;;;;40.38;18.88;;;;;;;-1.25;67.26;93721.94;5003850;28;20026;-80
2022/03/08 10:11:01;;;;;;;34.30;16.92;;;;;;;-1.12;66.42;93718.16;5003758;28;20033;-83
2022/03/08 10:13:28;;;;;;;41.85;17.20;;;;;;;-1.02;66.04;93724.31;5004115;28;20033;-80
2022/03/08 10:16:14;;;;;;;40.28;18.15;;;;;;;-1.24;66.52;93728.75;5005650;28;20213;-81
2022/03/08 10:18:51;;;;;;;39.25;16.98;;;;;;;-1.19;67.06;93728.81;5003826;28;20034;-79
2022/03/08 10:21:36;;;;;;;35.22;17.48;;;;;;;-1.09;65.51;93723.69;5003648;28;20050;-79
2022/03/08 10:24:15;;;;;;;44.80;19.33;;;;;;;-0.99;66.29;93720.41;5003787;28;20081;-80
2022/03/08 10:26:43;;;;;;;38.55;19.85;;;;;;;-1.09;65.86;93715.84;5003491;28;20026;-82
2022/03/08 10:29:09;;;;;;;39.65;18.05;;;;;;;-1.03;66.96;93719.31;5003598;28;20118;-82
2022/03/08 10:31:34;;;;;;;38.75;19.13;;;;;;;-0.89;66.20;93719.75;5003644;28;20026;-82
2022/03/08 10:34:06;;;;;;;32.00;15.70;;;;;;;-1.05;65.12;93718.78;5003555;28;20026;-82
2022/03/08 10:36:32;;;;;;;31.50;16.20;;;;;;;-0.95;64.77;93723.34;5003745;28;20033;-82
2022/03/08 10:39:15;;;;;;;34.15;16.23;;;;;;;-0.87;64.97;93715.84;5003642;28;20037;-81
2022/03/08 10:41:58;;;;;;;32.58;16.45;;;;;;;-0.74;64.70;93716.50;5003117;28;20105;-82
2022/03/08 10:44:50;;;;;;;34.38;16.33;;;;;;;-0.73;64.80;93718.88;5003272;28;20033;-79
2022/03/08 10:47:16;;;;;;;35.92;16.42;;;;;;;-0.86;65.06;93714.78;5001165;28;20062;-80
2022/03/08 10:49:56;;;;;;;32.83;16.20;;;;;;;-0.93;65.81;93708.19;5002929;28;20065;-80
2022/03/08 10:52:31;;;;;;;34.88;15.93;;;;;;;-0.84;65.63;93711.94;5003210;28;20064;-80
2022/03/08 10:55:16;;;;;;;35.97;16.55;;;;;;;-0.84;65.87;93717.16;5004189;28;20038;-79
2022/03/08 10:57:44;;;;;;;31.98;15.23;;;;;;;-0.71;64.28;93714.19;5002960;28;20080;-78
2022/03/08 11:00:14;;;;;;;35.13;17.67;;;;;;;-0.69;64.84;93717.34;5003198;28;20038;-77
2022/03/08 11:03:05;;;;;;;40.50;18.40;;;;;;;-0.44;65.01;93714.16;5004351;28;20030;-77
2022/03/08 11:05:35;;;;;;;43.90;18.45;;;;;;;-0.26;63.21;93717.47;5007637;28;20101;-81
2022/03/08 11:08:01;;;;;;;28.95;16.30;;;;;;;-0.40;62.52;93717.09;5007896;28;20036;-80
2022/03/08 11:10:31;;;;;;;31.35;16.17;;;;;;;-0.27;62.43;93721.91;5006928;28;20337;-80
2022/03/08 11:12:59;;;;;;;33.78;16.20;;;;;;;-0.26;62.21;93713.03;5008194;28;20022;-78
2022/03/08 11:15:29;;;;;;;30.30;14.85;;;;;;;-0.24;62.65;93712.78;5023613;28;20054;-79